Time;durP1;ratioP1;P1;durP2;ratioP2;P2;SDS_P1;SDS_P2;PMS_P1;PMS_P2;Temp;Humidity;BMP_temperature;BMP_pressure;BME280_temperature;BME280_humidity;BME280_pressure;Samples;Min_cycle;Max_cycle;Signal;HPM_P1;HPM_P2
2021/04/12 00:01:04;;;;;;;;;;;10.50;67.40;;;;;;5046048;28;19925;-75
2021/04/12 00:03:33;;;;;;;;;;;10.40;66.90;;;;;;5036220;28;19925;-74
2021/04/12 00:06:02;;;;;;;;;;;10.40;66.30;;;;;;5050789;28;19932;-74
2021/04/12 00:08:30;;;;;;;;;;;10.30;65.50;;;;;;5051934;28;19929;-74
2021/04/12 00:11:00;;;;;;;;;;;10.20;65.10;;;;;;5053166;28;19925;-75
2021/04/12 00:13:32;;;;;;;;;;;10.10;65.70;;;;;;5049563;28;20289;-75
2021/04/12 00:16:00;;;;;;;;;;;10.10;66.10;;;;;;5044961;28;19932;-74
2021/04/12 00:18:30;;;;;;;;;;;10.00;65.80;;;;;;5048226;28;19929;-75
2021/04/12 00:20:58;;;;;;;;;;;9.80;65.70;;;;;;5033211;28;19932;-75
2021/04/12 00:23:27;;;;;;;;;;;9.70;66.30;;;;;;5050975;28;20300;-74
2021/04/12 00:25:55;;;;;;;;;;;9.60;67.80;;;;;;5039122;28;19926;-74
2021/04/12 00:28:24;;;;;;;;;;;9.50;68.00;;;;;;5040914;28;19948;-74
2021/04/12 00:30:52;;;;;;;;;;;9.60;68.20;;;;;;5052334;28;20372;-76
2021/04/12 00:33:22;;;;;;;;;;;9.70;68.30;;;;;;5032910;28;19968;-76
2021/04/12 00:35:52;;;;;;;;;;;9.70;67.60;;;;;;5042195;28;19959;-75
2021/04/12 00:38:22;;;;;;;;;;;9.60;67.70;;;;;;5037004;28;19939;-76
2021/04/12 00:40:53;;;;;;;;;;;9.60;67.80;;;;;;5052488;28;19924;-76
2021/04/12 00:43:23;;;;;;;;;;;9.60;68.20;;;;;;5039508;28;19925;-76
2021/04/12 00:46:03;;;;;;;;;;;9.70;69.00;;;;;;5032706;28;19937;-75
2021/04/12 00:48:44;;;;;;;;;;;9.60;68.50;;;;;;5033019;28;19932;-75
2021/04/12 00:51:26;;;;;;;;;;;9.60;68.40;;;;;;5047699;28;19979;-74
2021/04/12 00:54:01;;;;;;;;;;;9.60;68.70;;;;;;5038027;28;19953;-75
2021/04/12 00:56:29;;;;;;;;;;;9.50;69.70;;;;;;5039805;28;19933;-75
2021/04/12 00:58:59;;;;;;;;;;;9.50;69.80;;;;;;5051679;28;19932;-76
2021/04/12 01:01:43;;;;;;;;;;;9.50;69.50;;;;;;5044644;28;19925;-75
2021/04/12 01:04:23;;;;;;;;;;;9.40;69.40;;;;;;5040170;28;19928;-75
2021/04/12 01:07:13;;;;;;;;;;;9.30;68.90;;;;;;5050072;28;19924;-74
2021/04/12 01:10:03;;;;;;;;;;;9.20;69.70;;;;;;4989388;28;19934;-74
2021/04/12 01:12:45;;;;;;;;;;;9.20;69.80;;;;;;5031057;28;19971;-74
2021/04/12 01:15:23;;;;;;;;;;;9.10;68.70;;;;;;5043119;28;19924;-74
2021/04/12 01:17:58;;;;;;;;;;;9.10;68.50;;;;;;5049406;28;19948;-74
2021/04/12 01:20:51;;;;;;;;;;;9.00;69.10;;;;;;5032448;28;19926;-74
2021/04/12 01:23:36;;;;;;;;;;;9.00;69.20;;;;;;5036939;28;19978;-74
2021/04/12 01:26:20;;;;;;;;;;;9.10;69.00;;;;;;5049695;28;19924;-74
2021/04/12 01:29:04;;;;;;;;;;;9.10;68.40;;;;;;5044716;28;19986;-74
2021/04/12 01:31:49;;;;;;;;;;;8.90;68.20;;;;;;5048863;28;19924;-74
2021/04/12 01:34:33;;;;;;;;;;;8.90;68.30;;;;;;5036012;28;19932;-74
2021/04/12 01:37:13;;;;;;;;;;;8.90;69.20;;;;;;5034695;28;19929;-74
2021/04/12 01:39:48;;;;;;;;;;;8.90;69.70;;;;;;5036693;28;19928;-74
2021/04/12 01:42:22;;;;;;;;;;;9.00;69.60;;;;;;5049910;28;20463;-74
2021/04/12 01:44:52;;;;;;;;;;;8.90;68.20;;;;;;5036236;28;19952;-74
2021/04/12 01:47:30;;;;;;;;;;;8.90;68.40;;;;;;5038051;28;19925;-76
2021/04/12 01:50:11;;;;;;;;;;;8.80;68.90;;;;;;5035783;28;19979;-76
2021/04/12 01:52:51;;;;;;;;;;;8.80;69.20;;;;;;5041616;28;19932;-76
2021/04/12 01:55:30;;;;;;;;;;;8.70;69.30;;;;;;5055451;28;19931;-76
2021/04/12 01:58:08;;;;;;;;;;;8.70;69.60;;;;;;5047662;28;19995;-76
2021/04/12 02:00:52;;;;;;;;;;;8.70;69.50;;;;;;5056072;28;19925;-76
2021/04/12 02:03:42;;;;;;;;;;;8.70;69.60;;;;;;5062988;28;19925;-76
2021/04/12 02:06:31;;;;;;;;;;;8.60;69.60;;;;;;5038429;28;20412;-76
2021/04/12 02:09:03;;;;;;;;;;;8.60;70.00;;;;;;5046426;28;19925;-76
2021/04/12 02:11:43;;;;;;;;;;;8.60;70.40;;;;;;5036851;28;19925;-76
2021/04/12 02:14:27;;;;;;;;;;;8.60;70.20;;;;;;5050366;28;20313;-77
2021/04/12 02:16:55;;;;;;;;;;;8.60;70.30;;;;;;5053687;28;19936;-76
2021/04/12 02:19:32;;;;;;;;;;;8.70;70.10;;;;;;5051782;28;19971;-76
2021/04/12 02:22:04;;;;;;;;;;;8.70;70.00;;;;;;5043688;28;19971;-76
2021/04/12 02:24:34;;;;;;;;;;;8.70;70.10;;;;;;5036154;28;19944;-76
2021/04/12 02:27:09;;;;;;;;;;;8.70;70.70;;;;;;5035425;28;19951;-76
2021/04/12 02:29:40;;;;;;;;;;;8.80;70.00;;;;;;5052181;28;19925;-75
2021/04/12 02:32:18;;;;;;;;;;;8.80;70.30;;;;;;5049426;28;20319;-75
2021/04/12 02:34:45;;;;;;;;;;;8.90;69.30;;;;;;5049887;28;20023;-75
2021/04/12 02:37:33;;;;;;;;;;;8.80;69.40;;;;;;5034930;28;20340;-76
2021/04/12 02:40:12;;;;;;;;;;;8.90;69.30;;;;;;5045361;28;19925;-75
2021/04/12 02:42:43;;;;;;;;;;;8.90;69.10;;;;;;5055032;28;19925;-75
2021/04/12 02:45:24;;;;;;;;;;;9.00;69.40;;;;;;5053805;28;20385;-75
2021/04/12 02:47:57;;;;;;;;;;;8.90;68.80;;;;;;5037257;28;19932;-75
2021/04/12 02:50:29;;;;;;;;;;;8.80;68.00;;;;;;5047522;28;20346;-75
2021/04/12 02:53:01;;;;;;;;;;;8.80;68.30;;;;;;5040842;28;19925;-75
2021/04/12 02:55:36;;;;;;;;;;;8.80;68.50;;;;;;5035613;28;19953;-75
2021/04/12 02:58:21;;;;;;;;;;;8.80;68.70;;;;;;5035119;28;19932;-75
2021/04/12 03:00:58;;;;;;;;;;;8.90;68.70;;;;;;5043714;28;19925;-75
2021/04/12 03:03:29;;;;;;;;;;;8.90;69.00;;;;;;5053425;28;20007;-75
2021/04/12 03:06:02;;;;;;;;;;;8.90;68.50;;;;;;5058701;28;20295;-75
2021/04/12 03:08:36;;;;;;;;;;;9.00;68.30;;;;;;5047188;28;19925;-76
2021/04/12 03:11:20;;;;;;;;;;;9.00;68.20;;;;;;5047811;28;19925;-75
2021/04/12 03:14:04;;;;;;;;;;;9.00;67.80;;;;;;5013653;28;19978;-76
2021/04/12 03:16:49;;;;;;;;;;;9.10;68.20;;;;;;5044690;28;19925;-76
2021/04/12 03:19:22;;;;;;;;;;;9.10;68.40;;;;;;5035141;28;19931;-76
2021/04/12 03:22:05;;;;;;;;;;;9.10;67.80;;;;;;5045575;28;19929;-76
2021/04/12 03:24:36;;;;;;;;;;;9.00;67.50;;;;;;5054117;28;20442;-76
2021/04/12 03:27:13;;;;;;;;;;;9.00;67.30;;;;;;5037892;28;19929;-76
2021/04/12 03:29:45;;;;;;;;;;;8.90;67.70;;;;;;5040413;28;20335;-76
2021/04/12 03:32:16;;;;;;;;;;;8.90;68.20;;;;;;5050789;28;19932;-76
2021/04/12 03:34:49;;;;;;;;;;;8.90;68.00;;;;;;5046948;28;19929;-76
2021/04/12 03:37:23;;;;;;;;;;;8.90;67.90;;;;;;5034245;28;19926;-76
2021/04/12 03:39:52;;;;;;;;;;;8.80;67.60;;;;;;5034858;28;20396;-76
2021/04/12 03:42:42;;;;;;;;;;;8.80;67.60;;;;;;5049746;28;19929;-76
2021/04/12 03:45:14;;;;;;;;;;;8.70;67.00;;;;;;4997781;28;19925;-76
2021/04/12 03:48:04;;;;;;;;;;;8.60;67.00;;;;;;5052172;28;19929;-75
2021/04/12 03:50:39;;;;;;;;;;;8.60;67.50;;;;;;5036077;28;19979;-75
2021/04/12 03:53:24;;;;;;;;;;;8.60;68.00;;;;;;5041872;28;20404;-75
2021/04/12 03:56:07;;;;;;;;;;;8.60;68.30;;;;;;5044476;28;19971;-74
2021/04/12 03:58:58;;;;;;;;;;;8.60;68.00;;;;;;5040663;28;20000;-74
2021/04/12 04:01:38;;;;;;;;;;;8.60;67.60;;;;;;5044625;28;19925;-76
2021/04/12 04:04:25;;;;;;;;;;;8.60;67.50;;;;;;5049620;28;19932;-75
2021/04/12 04:07:01;;;;;;;;;;;8.60;67.90;;;;;;5023633;28;19924;-75
2021/04/12 04:09:36;;;;;;;;;;;8.60;68.10;;;;;;5051279;28;20538;-75
2021/04/12 04:12:12;;;;;;;;;;;8.70;68.10;;;;;;5037366;28;19936;-74
2021/04/12 04:15:06;;;;;;;;;;;8.70;68.20;;;;;;5043934;28;19925;-75
2021/04/12 04:17:52;;;;;;;;;;;8.70;68.60;;;;;;5035478;28;20360;-75
2021/04/12 04:20:26;;;;;;;;;;;8.70;68.50;;;;;;5047073;28;20003;-75
2021/04/12 04:22:58;;;;;;;;;;;8.80;68.40;;;;;;5050403;28;19925;-74
2021/04/12 04:25:28;;;;;;;;;;;8.80;68.30;;;;;;5042311;28;20475;-74
2021/04/12 04:28:09;;;;;;;;;;;8.80;68.10;;;;;;5043479;28;19928;-74
2021/04/12 04:30:49;;;;;;;;;;;8.70;68.30;;;;;;5035528;28;19931;-76
2021/04/12 04:33:30;;;;;;;;;;;8.70;68.50;;;;;;5056695;28;19925;-75
2021/04/12 04:36:18;;;;;;;;;;;8.70;68.60;;;;;;5037244;28;19972;-75
2021/04/12 04:39:03;;;;;;;;;;;8.70;68.30;;;;;;5046725;28;19932;-74
2021/04/12 04:41:41;;;;;;;;;;;8.70;68.50;;;;;;5044441;28;19971;-74
2021/04/12 04:44:18;;;;;;;;;;;8.70;68.70;;;;;;5032699;28;19988;-75
2021/04/12 04:46:59;;;;;;;;;;;8.70;68.50;;;;;;5041349;28;19928;-75
2021/04/12 04:49:32;;;;;;;;;;;8.60;68.10;;;;;;5044741;28;19925;-74
2021/04/12 04:52:22;;;;;;;;;;;8.50;68.10;;;;;;5033084;28;19925;-74
2021/04/12 04:54:55;;;;;;;;;;;8.50;68.50;;;;;;5022363;28;19933;-74
2021/04/12 04:57:26;;;;;;;;;;;8.50;68.60;;;;;;5060093;28;19947;-74
2021/04/12 05:00:05;;;;;;;;;;;8.50;68.70;;;;;;5035951;28;19933;-75
2021/04/12 05:02:41;;;;;;;;;;;8.60;68.80;;;;;;5034231;28;20351;-77
2021/04/12 05:05:23;;;;;;;;;;;8.60;68.80;;;;;;5036403;28;19948;-77
2021/04/12 05:07:53;;;;;;;;;;;8.50;68.70;;;;;;5058303;28;19925;-77
2021/04/12 05:10:29;;;;;;;;;;;8.50;68.70;;;;;;5033195;28;20001;-76
2021/04/12 05:13:13;;;;;;;;;;;8.50;68.80;;;;;;5048265;28;20000;-76
2021/04/12 05:16:02;;;;;;;;;;;8.50;68.60;;;;;;5041297;28;19944;-78
2021/04/12 05:18:38;;;;;;;;;;;8.50;68.50;;;;;;5046845;28;19979;-77
2021/04/12 05:21:14;;;;;;;;;;;8.50;68.60;;;;;;5038986;28;19932;-76
2021/04/12 05:23:52;;;;;;;;;;;8.50;68.00;;;;;;5047923;28;19932;-79
2021/04/12 05:29:30;;;;;;;;;;;8.40;68.40;;;;;;5061263;28;19924;-79
2021/04/12 05:32:01;;;;;;;;;;;8.40;68.60;;;;;;5062397;28;19933;-80
2021/04/12 05:37:59;;;;;;;;;;;8.40;68.40;;;;;;5007804;28;19932;-80
2021/04/12 05:40:35;;;;;;;;;;;8.50;68.30;;;;;;5055297;28;19925;-79
2021/04/12 05:43:11;;;;;;;;;;;8.50;67.60;;;;;;5047740;28;19970;-82
2021/04/12 05:45:53;;;;;;;;;;;8.50;67.40;;;;;;5055232;28;19929;-85
2021/04/12 05:48:28;;;;;;;;;;;8.50;67.70;;;;;;5055087;28;20349;-83
2021/04/12 05:51:07;;;;;;;;;;;8.50;67.50;;;;;;5050552;28;19932;-80
2021/04/12 05:54:00;;;;;;;;;;;8.50;67.90;;;;;;5054045;28;20297;-78
2021/04/12 05:56:46;;;;;;;;;;;8.60;68.10;;;;;;5050482;28;20320;-80
2021/04/12 05:59:33;;;;;;;;;;;8.60;68.10;;;;;;5076094;28;19929;-84
2021/04/12 06:05:07;;;;;;;;;;;8.70;67.80;;;;;;5051788;28;20387;-80
2021/04/12 06:07:46;;;;;;;;;;;8.70;67.70;;;;;;5074153;28;19931;-80
2021/04/12 06:10:31;;;;;;;;;;;8.80;67.70;;;;;;5040535;28;19929;-78
2021/04/12 06:13:22;;;;;;;;;;;8.80;67.50;;;;;;5041604;28;19937;-77
2021/04/12 06:15:59;;;;;;;;;;;8.90;67.50;;;;;;5053583;28;20377;-78
2021/04/12 06:18:37;;;;;;;;;;;8.90;67.10;;;;;;5049314;28;19925;-78
2021/04/12 06:21:12;;;;;;;;;;;8.90;67.20;;;;;;5041907;28;20382;-78
2021/04/12 06:23:46;;;;;;;;;;;8.90;67.20;;;;;;5035712;28;19925;-77
2021/04/12 06:26:27;;;;;;;;;;;9.00;67.30;;;;;;5041839;28;20381;-77
2021/04/12 06:29:00;;;;;;;;;;;9.00;67.10;;;;;;5049356;28;20404;-77
2021/04/12 06:31:47;;;;;;;;;;;9.00;66.90;;;;;;5060532;28;19933;-77
2021/04/12 06:34:23;;;;;;;;;;;9.00;66.80;;;;;;5037764;28;19995;-78
2021/04/12 06:36:55;;;;;;;;;;;9.10;66.80;;;;;;5042897;28;19925;-79
2021/04/12 06:39:42;;;;;;;;;;;9.20;66.70;;;;;;5045912;28;19933;-78
2021/04/12 06:42:20;;;;;;;;;;;9.20;66.50;;;;;;5041068;28;19931;-80
2021/04/12 06:45:07;;;;;;;;;;;9.30;65.80;;;;;;5055208;28;19982;-76
2021/04/12 06:48:09;;;;;;;;;;;9.30;66.10;;;;;;5050380;28;19924;-76
2021/04/12 06:50:47;;;;;;;;;;;9.30;65.90;;;;;;5051173;28;19925;-74
2021/04/12 06:53:37;;;;;;;;;;;9.30;65.80;;;;;;5051477;28;19924;-74
2021/04/12 06:56:21;;;;;;;;;;;9.20;65.80;;;;;;5049129;28;19925;-74
2021/04/12 06:59:06;;;;;;;;;;;9.30;66.30;;;;;;5023347;28;19933;-74
2021/04/12 07:01:59;;;;;;;;;;;9.30;66.30;;;;;;5055258;28;19935;-74
2021/04/12 07:04:46;;;;;;;;;;;9.30;66.10;;;;;;5073514;28;20380;-74
2021/04/12 07:07:30;;;;;;;;;;;9.40;65.80;;;;;;5068723;28;19929;-75
2021/04/12 07:10:10;;;;;;;;;;;9.40;65.90;;;;;;5074342;28;19957;-74
2021/04/12 07:13:00;;;;;;;;;;;9.40;65.90;;;;;;5074079;28;19932;-75
2021/04/12 07:15:49;;;;;;;;;;;9.40;66.00;;;;;;5074047;28;19970;-74
2021/04/12 07:18:29;;;;;;;;;;;9.40;66.10;;;;;;5074140;28;20068;-74
2021/04/12 07:21:17;;;;;;;;;;;9.30;65.40;;;;;;5074118;28;19925;-75
2021/04/12 07:24:14;;;;;;;;;;;9.30;65.50;;;;;;5074113;28;19928;-74
2021/04/12 07:26:55;;;;;;;;;;;9.30;65.50;;;;;;5073789;28;20277;-74
2021/04/12 07:29:45;;;;;;;;;;;9.30;65.60;;;;;;5070624;28;19985;-74
2021/04/12 07:32:38;;;;;;;;;;;9.30;65.60;;;;;;5073725;28;19931;-74
2021/04/12 07:35:16;;;;;;;;;;;9.30;65.40;;;;;;5073579;28;19928;-73
2021/04/12 07:37:57;;;;;;;;;;;9.30;64.50;;;;;;5073430;28;19953;-74
2021/04/12 07:40:42;;;;;;;;;;;9.30;65.00;;;;;;5073316;28;19925;-75
2021/04/12 07:43:28;;;;;;;;;;;9.30;64.90;;;;;;5073759;28;19924;-74
2021/04/12 07:46:17;;;;;;;;;;;9.30;64.80;;;;;;5073415;28;19924;-74
2021/04/12 07:49:02;;;;;;;;;;;9.40;65.00;;;;;;5073337;28;19925;-75
2021/04/12 07:51:49;;;;;;;;;;;9.40;64.20;;;;;;5073242;28;20404;-75
2021/04/12 07:54:45;;;;;;;;;;;9.50;64.30;;;;;;5047530;28;19924;-74
2021/04/12 07:57:32;;;;;;;;;;;9.60;64.80;;;;;;5073276;28;20014;-75
2021/04/12 08:00:13;;;;;;;;;;;9.70;65.20;;;;;;5073177;28;20411;-74
2021/04/12 08:03:03;;;;;;;;;;;9.80;64.70;;;;;;5050778;28;19931;-75
2021/04/12 08:05:48;;;;;;;;;;;9.90;64.00;;;;;;5053103;28;19925;-74
2021/04/12 08:08:23;;;;;;;;;;;10.10;63.00;;;;;;5053254;28;19929;-74
2021/04/12 08:11:13;;;;;;;;;;;10.10;62.40;;;;;;5053119;28;20381;-75
2021/04/12 08:14:00;;;;;;;;;;;10.10;62.30;;;;;;5053187;28;20455;-74
2021/04/12 08:16:44;;;;;;;;;;;10.10;62.10;;;;;;5052977;28;20023;-75
2021/04/12 08:19:20;;;;;;;;;;;10.10;62.20;;;;;;5042435;28;19986;-74
2021/04/12 08:22:09;;;;;;;;;;;10.20;62.50;;;;;;5051263;28;19929;-74
2021/04/12 08:24:51;;;;;;;;;;;10.30;62.00;;;;;;5053045;28;19948;-74
2021/04/12 08:27:47;;;;;;;;;;;10.40;61.50;;;;;;5052984;28;19925;-74
2021/04/12 08:30:30;;;;;;;;;;;10.50;60.60;;;;;;5053033;28;19925;-74
2021/04/12 08:33:15;;;;;;;;;;;10.60;60.70;;;;;;5013335;28;19925;-74
2021/04/12 08:35:59;;;;;;;;;;;10.60;60.30;;;;;;5012946;28;20370;-74
2021/04/12 08:38:51;;;;;;;;;;;10.60;60.20;;;;;;5013142;28;20345;-74
2021/04/12 08:41:35;;;;;;;;;;;10.60;60.00;;;;;;5013216;28;19930;-74
2021/04/12 08:44:13;;;;;;;;;;;10.60;59.60;;;;;;5013430;28;20058;-74
2021/04/12 08:47:00;;;;;;;;;;;10.50;59.70;;;;;;5013258;28;19925;-74
2021/04/12 08:49:46;;;;;;;;;;;10.60;59.50;;;;;;5013129;28;19929;-74
2021/04/12 08:52:43;;;;;;;;;;;10.60;59.60;;;;;;5017176;28;19936;-74
2021/04/12 08:55:27;;;;;;;;;;;10.70;59.30;;;;;;5017058;28;20400;-74
2021/04/12 08:58:11;;;;;;;;;;;10.70;58.70;;;;;;5017131;28;19929;-74
2021/04/12 09:00:52;;;;;;;;;;;10.80;59.10;;;;;;5025270;28;19928;-74
2021/04/12 09:03:46;;;;;;;;;;;10.90;58.80;;;;;;5076775;28;19932;-74
2021/04/12 09:06:45;;;;;;;;;;;10.90;58.20;;;;;;5076613;28;20288;-74
2021/04/12 09:09:29;;;;;;;;;;;10.80;57.70;;;;;;5076614;28;19924;-74
2021/04/12 09:12:02;;;;;;;;;;;10.70;57.90;;;;;;5075878;28;20361;-74
2021/04/12 09:15:01;;;;;;;;;;;10.50;58.10;;;;;;5074814;28;19931;-74
2021/04/12 09:17:51;;;;;;;;;;;10.50;58.30;;;;;;5076426;28;19928;-74
2021/04/12 09:20:40;;;;;;;;;;;10.50;57.90;;;;;;5065567;28;19925;-74
2021/04/12 09:23:28;;;;;;;;;;;10.50;57.90;;;;;;5070794;28;19924;-74
2021/04/12 09:26:08;;;;;;;;;;;10.50;57.60;;;;;;5076175;28;19928;-74
2021/04/12 09:28:49;;;;;;;;;;;10.60;57.10;;;;;;5076145;28;20293;-74
2021/04/12 09:31:34;;;;;;;;;;;10.60;56.30;;;;;;5075986;28;19925;-75
2021/04/12 09:34:35;;;;;;;;;;;10.70;56.90;;;;;;5075979;28;19928;-74
2021/04/12 09:37:18;;;;;;;;;;;10.80;56.60;;;;;;5076125;28;19932;-74
2021/04/12 09:40:15;;;;;;;;;;;11.10;56.70;;;;;;5074339;28;20381;-75
2021/04/12 09:42:51;;;;;;;;;;;11.20;56.50;;;;;;5075981;28;19928;-74
2021/04/12 09:45:50;;;;;;;;;;;11.30;55.60;;;;;;5076029;28;19925;-74
2021/04/12 09:48:34;;;;;;;;;;;11.40;55.70;;;;;;5075907;28;19925;-74
2021/04/12 09:51:28;;;;;;;;;;;11.60;55.50;;;;;;5075799;28;20389;-74
2021/04/12 09:54:09;;;;;;;;;;;11.70;54.80;;;;;;5035957;28;19925;-74
2021/04/12 09:57:02;;;;;;;;;;;11.70;54.10;;;;;;5051673;28;19925;-74
2021/04/12 09:59:52;;;;;;;;;;;11.70;53.10;;;;;;5040492;28;19925;-74
2021/04/12 10:02:33;;;;;;;;;;;11.60;53.10;;;;;;5022290;28;19930;-74
2021/04/12 10:05:10;;;;;;;;;;;11.60;53.20;;;;;;5018711;28;19926;-74
2021/04/12 10:07:55;;;;;;;;;;;11.50;52.10;;;;;;5016032;28;19925;-75
2021/04/12 10:10:23;;;;;;;;;;;11.50;52.00;;;;;;5030553;28;19933;-79
2021/04/12 10:13:03;;;;;;;;;;;11.50;51.80;;;;;;5025437;28;19926;-77
2021/04/12 10:15:36;;;;;;;;;;;11.50;51.80;;;;;;5026405;28;19967;-75
2021/04/12 10:18:08;;;;;;;;;;;11.60;51.50;;;;;;5033538;28;19932;-75
2021/04/12 10:20:40;;;;;;;;;;;11.70;50.90;;;;;;5016603;28;19972;-75
2021/04/12 10:23:09;;;;;;;;;;;11.80;50.30;;;;;;5030139;28;19925;-75
2021/04/12 10:25:38;;;;;;;;;;;11.80;50.20;;;;;;5038468;28;19925;-75
2021/04/12 10:28:13;;;;;;;;;;;11.90;50.10;;;;;;5044597;28;19932;-75
2021/04/12 10:30:43;;;;;;;;;;;11.90;49.70;;;;;;5021055;28;19925;-75
2021/04/12 10:33:14;;;;;;;;;;;11.90;48.30;;;;;;5031847;28;20376;-75
2021/04/12 10:35:45;;;;;;;;;;;12.00;48.60;;;;;;5026157;28;19926;-75
2021/04/12 10:38:16;;;;;;;;;;;12.10;47.80;;;;;;5031653;28;19926;-75
2021/04/12 10:40:46;;;;;;;;;;;12.30;47.10;;;;;;5024600;28;20317;-75
2021/04/12 10:43:17;;;;;;;;;;;12.40;46.30;;;;;;5020647;28;19979;-75
2021/04/12 10:45:45;;;;;;;;;;;12.60;46.10;;;;;;5028541;28;20413;-75
2021/04/12 10:48:15;;;;;;;;;;;12.80;44.70;;;;;;5031604;28;19925;-76
2021/04/12 10:50:53;;;;;;;;;;;12.90;44.20;;;;;;5026775;28;20016;-77
2021/04/12 10:53:37;;;;;;;;;;;13.00;44.50;;;;;;5028086;28;19925;-75
2021/04/12 10:56:06;;;;;;;;;;;13.00;43.90;;;;;;5031401;28;19925;-77
2021/04/12 10:58:47;;;;;;;;;;;13.00;43.30;;;;;;5028792;28;19928;-75
2021/04/12 11:01:16;;;;;;;;;;;12.90;42.40;;;;;;5032507;28;19936;-75
2021/04/12 11:03:48;;;;;;;;;;;12.80;42.40;;;;;;5050392;28;19950;-81
2021/04/12 11:06:33;;;;;;;;;;;12.60;42.90;;;;;;5059212;28;20108;-78
2021/04/12 11:09:07;;;;;;;;;;;12.50;43.40;;;;;;5055118;28;19979;-78
2021/04/12 11:11:38;;;;;;;;;;;12.40;42.90;;;;;;5051205;28;19925;-79
2021/04/12 11:14:10;;;;;;;;;;;12.20;43.70;;;;;;5052385;28;19951;-79
2021/04/12 11:16:43;;;;;;;;;;;12.20;44.30;;;;;;5051649;28;20341;-79
2021/04/12 11:19:19;;;;;;;;;;;12.40;44.70;;;;;;5053893;28;19924;-79
2021/04/12 11:21:51;;;;;;;;;;;12.60;44.40;;;;;;5040184;28;19929;-78
2021/04/12 11:24:40;;;;;;;;;;;12.80;44.20;;;;;;5033996;28;19975;-79
2021/04/12 11:27:33;;;;;;;;;;;13.20;44.10;;;;;;5048250;28;19925;-80
2021/04/12 11:30:04;;;;;;;;;;;13.50;41.10;;;;;;5052024;28;19925;-79
2021/04/12 11:32:38;;;;;;;;;;;13.30;40.30;;;;;;5070913;28;19928;-78
2021/04/12 11:35:07;;;;;;;;;;;13.00;40.30;;;;;;5047707;28;19925;-80
2021/04/12 11:37:39;;;;;;;;;;;12.50;40.70;;;;;;5035048;28;20024;-81
2021/04/12 11:40:11;;;;;;;;;;;12.40;41.80;;;;;;5035243;28;19925;-79
2021/04/12 11:42:48;;;;;;;;;;;12.40;42.20;;;;;;5050914;28;19924;-82
2021/04/12 11:45:16;;;;;;;;;;;12.40;41.60;;;;;;5052894;28;19925;-78
2021/04/12 11:47:57;;;;;;;;;;;12.70;42.80;;;;;;5054036;28;19925;-78
2021/04/12 11:50:28;;;;;;;;;;;14.40;42.60;;;;;;5051783;28;19925;-79
2021/04/12 11:52:56;;;;;;;;;;;16.50;39.60;;;;;;5035018;28;19925;-78
2021/04/12 11:55:30;;;;;;;;;;;18.50;37.70;;;;;;5046356;28;19929;-80
2021/04/12 11:58:01;;;;;;;;;;;20.00;35.10;;;;;;5052965;28;19924;-79
2021/04/12 12:00:29;;;;;;;;;;;20.20;31.10;;;;;;5052809;28;20070;-79
2021/04/12 12:03:07;;;;;;;;;;;19.30;29.00;;;;;;5056741;28;20396;-81
2021/04/12 12:05:41;;;;;;;;;;;18.40;29.30;;;;;;5055086;28;20346;-80
2021/04/12 12:08:18;;;;;;;;;;;17.60;30.90;;;;;;5073114;28;19931;-78
2021/04/12 12:10:57;;;;;;;;;;;16.80;32.40;;;;;;5050611;28;19926;-82
2021/04/12 12:13:36;;;;;;;;;;;16.20;32.40;;;;;;5049869;28;20274;-79
2021/04/12 12:16:12;;;;;;;;;;;15.60;33.00;;;;;;5033031;28;19932;-79
2021/04/12 12:18:42;;;;;;;;;;;14.90;33.30;;;;;;5047926;28;19929;-80
2021/04/12 12:21:13;;;;;;;;;;;14.30;33.80;;;;;;5071424;28;19947;-79
2021/04/12 12:23:42;;;;;;;;;;;13.90;34.80;;;;;;5067086;28;19925;-80
2021/04/12 12:26:14;;;;;;;;;;;13.60;35.50;;;;;;5052479;28;20378;-80
2021/04/12 12:28:42;;;;;;;;;;;13.20;35.90;;;;;;5050904;28;19924;-79
2021/04/12 12:34:00;;;;;;;;;;;12.70;37.80;;;;;;5061109;28;20370;-80
2021/04/12 12:36:32;;;;;;;;;;;12.70;38.60;;;;;;5048736;28;20198;-81
2021/04/12 12:39:30;;;;;;;;;;;;;;;;;;;;;
2021/04/12 12:45:08;;;;;;;;;;;13.30;37.50;;;;;;5030444;28;19932;-80
2021/04/12 12:47:37;;;;;;;;;;;13.40;36.40;;;;;;5049516;28;19968;-82
2021/04/12 12:50:10;;;;;;;;;;;13.60;36.40;;;;;;5044711;28;19932;-82
2021/04/12 12:52:38;;;;;;;;;;;13.70;36.50;;;;;;5032623;28;20395;-77
2021/04/12 12:55:13;;;;;;;;;;;13.70;35.50;;;;;;5033197;28;20596;-84
2021/04/12 12:57:42;;;;;;;;;;;13.70;35.00;;;;;;5032892;28;19925;-81
2021/04/12 13:00:18;;;;;;;;;;;13.70;33.80;;;;;;5043080;28;19925;-82
2021/04/12 13:02:46;;;;;;;;;;;13.70;33.20;;;;;;5032866;28;19932;-82
2021/04/12 13:05:18;;;;;;;;;;;13.70;33.10;;;;;;5034794;28;19932;-83
2021/04/12 13:07:47;;;;;;;;;;;13.80;33.20;;;;;;5052674;28;19935;-81
2021/04/12 13:10:16;;;;;;;;;;;13.80;33.50;;;;;;5051856;28;20280;-82
2021/04/12 13:12:46;;;;;;;;;;;13.90;34.40;;;;;;5052264;28;19929;-81
2021/04/12 13:15:25;;;;;;;;;;;14.10;33.70;;;;;;5044968;28;19925;-82
2021/04/12 13:17:52;;;;;;;;;;;14.20;32.90;;;;;;5032594;28;19925;-81
2021/04/12 13:20:26;;;;;;;;;;;14.20;33.40;;;;;;5037598;28;19936;-82
2021/04/12 13:23:07;;;;;;;;;;;14.10;33.30;;;;;;5052039;28;19925;-84
2021/04/12 13:25:35;;;;;;;;;;;14.20;33.70;;;;;;5050365;28;20001;-83
2021/04/12 13:28:04;;;;;;;;;;;14.30;33.80;;;;;;5050615;28;19929;-78
2021/04/12 13:30:36;;;;;;;;;;;14.30;33.20;;;;;;5054021;28;19925;-80
2021/04/12 13:33:05;;;;;;;;;;;14.30;31.90;;;;;;5058537;28;19932;-78
2021/04/12 13:35:33;;;;;;;;;;;14.20;32.30;;;;;;5050394;28;19925;-81
2021/04/12 13:38:06;;;;;;;;;;;14.10;32.80;;;;;;5035391;28;19933;-82
2021/04/12 13:53:01;;;;;;;;;;;14.00;33.50;;;;;;5036318;28;20396;-83
2021/04/12 14:08:24;;;;;;;;;;;13.50;33.90;;;;;;5034267;28;20288;-83
2021/04/12 14:14:20;;;;;;;;;;;13.50;34.70;;;;;;5055729;28;20016;-88
2021/04/12 14:16:48;;;;;;;;;;;13.70;34.90;;;;;;5038756;28;19994;-83
2021/04/12 14:22:18;;;;;;;;;;;13.90;35.00;;;;;;5052542;28;19935;-83
2021/04/12 14:28:27;;;;;;;;;;;14.00;34.50;;;;;;5031977;28;19929;-85
2021/04/12 14:37:27;;;;;;;;;;;13.30;35.10;;;;;;4985685;28;20314;-84
2021/04/12 14:40:07;;;;;;;;;;;13.10;35.40;;;;;;4993362;28;19926;-82
2021/04/12 14:43:06;;;;;;;;;;;13.00;35.40;;;;;;4992373;28;19949;-87
2021/04/12 14:48:38;;;;;;;;;;;13.10;36.30;;;;;;4993488;28;19936;-82
2021/04/12 14:54:11;;;;;;;;;;;13.00;36.00;;;;;;4993478;28;20344;-83
2021/04/12 14:56:41;;;;;;;;;;;13.00;36.20;;;;;;5024447;28;19925;-82
2021/04/12 14:59:25;;;;;;;;;;;13.10;36.20;;;;;;5047440;28;20423;-82
2021/04/12 15:01:52;;;;;;;;;;;13.10;36.00;;;;;;5058282;28;19931;-83
2021/04/12 15:04:21;;;;;;;;;;;13.20;35.30;;;;;;5034008;28;19925;-81
2021/04/12 15:06:49;;;;;;;;;;;13.30;35.90;;;;;;5053303;28;20001;-80
2021/04/12 15:09:18;;;;;;;;;;;13.30;36.10;;;;;;5053634;28;20269;-81
2021/04/12 15:11:46;;;;;;;;;;;13.20;35.60;;;;;;5053895;28;19932;-81
2021/04/12 15:14:18;;;;;;;;;;;13.20;35.70;;;;;;5038575;28;19925;-81
2021/04/12 15:16:46;;;;;;;;;;;12.90;35.00;;;;;;5058617;28;19929;-81
2021/04/12 15:19:20;;;;;;;;;;;12.40;35.50;;;;;;5043336;28;19932;-81
2021/04/12 15:21:58;;;;;;;;;;;12.10;36.10;;;;;;5046962;28;19939;-82
2021/04/12 15:24:27;;;;;;;;;;;11.90;37.30;;;;;;5074051;28;19925;-79
2021/04/12 15:26:56;;;;;;;;;;;12.00;37.00;;;;;;5059960;28;19924;-80
2021/04/12 15:29:26;;;;;;;;;;;12.20;37.00;;;;;;5053917;28;19972;-83
2021/04/12 15:31:54;;;;;;;;;;;12.50;36.50;;;;;;5064103;28;19931;-82
2021/04/12 15:34:34;;;;;;;;;;;12.60;36.50;;;;;;5064194;28;20016;-79
2021/04/12 15:37:01;;;;;;;;;;;12.70;36.70;;;;;;5040756;28;19925;-82
2021/04/12 15:42:21;;;;;;;;;;;12.80;37.20;;;;;;5059069;28;19924;-84
2021/04/12 15:48:04;;;;;;;;;;;12.90;36.80;;;;;;5063850;28;19924;-77
2021/04/12 15:50:32;;;;;;;;;;;12.90;36.10;;;;;;5053317;28;20019;-78
2021/04/12 15:53:02;;;;;;;;;;;13.00;36.20;;;;;;5050470;28;19925;-78
2021/04/12 15:55:31;;;;;;;;;;;13.00;36.00;;;;;;5052892;28;19925;-78
2021/04/12 15:58:00;;;;;;;;;;;13.00;35.80;;;;;;5052863;28;19971;-79
2021/04/12 16:00:28;;;;;;;;;;;12.90;35.50;;;;;;5053885;28;19936;-78
2021/04/12 16:03:00;;;;;;;;;;;12.90;35.70;;;;;;5065224;28;19925;-77
2021/04/12 16:05:32;;;;;;;;;;;12.90;36.10;;;;;;5051212;28;19929;-77
2021/04/12 16:08:03;;;;;;;;;;;12.90;36.70;;;;;;5051369;28;19932;-79
2021/04/12 16:10:38;;;;;;;;;;;12.70;36.30;;;;;;5033465;28;19925;-79
2021/04/12 16:13:06;;;;;;;;;;;12.60;36.90;;;;;;5035519;28;20282;-78
2021/04/12 16:15:34;;;;;;;;;;;12.40;36.70;;;;;;5051183;28;19932;-78
2021/04/12 16:18:03;;;;;;;;;;;12.30;37.60;;;;;;5052956;28;19983;-78
2021/04/12 16:20:32;;;;;;;;;;;12.30;38.00;;;;;;5050620;28;19925;-79
2021/04/12 16:23:01;;;;;;;;;;;12.30;37.90;;;;;;5033194;28;19937;-79
2021/04/12 16:25:30;;;;;;;;;;;12.30;37.30;;;;;;5033056;28;20267;-80
2021/04/12 16:28:03;;;;;;;;;;;12.30;37.40;;;;;;5032889;28;19951;-80
2021/04/12 16:30:34;;;;;;;;;;;12.30;37.80;;;;;;5050834;28;19931;-78
2021/04/12 16:33:01;;;;;;;;;;;12.50;37.80;;;;;;5072940;28;19983;-78